Time,TemperatureF,DewpointF,PressureIn,WindDirection,WindDirectionDegrees,WindSpeedMPH,WindSpeedGustMPH,Humidity,HourlyPrecipIn,Conditions,Clouds,dailyrainin,SoftwareType,DateUTC
2013-06-03 00:02:00,57.5,55.2,30.03,East,82,3.0,5.0,92,0.01,,---,0.00,VWS V14.01,2013-06-03 05:02:00,
2013-06-03 00:07:00,57.3,55.0,30.03,North,5,0.0,5.0,92,0.01,,---,0.00,VWS V14.01,2013-06-03 05:07:00,
2013-06-03 00:12:00,57.1,54.8,30.03,East,94,5.0,5.0,92,0.01,,---,0.00,VWS V14.01,2013-06-03 05:12:00,
2013-06-03 00:17:00,57.1,55.1,30.03,ENE,57,0.0,3.0,93,0.01,,---,0.00,VWS V14.01,2013-06-03 05:17:00,
2013-06-03 00:22:00,57.0,55.0,30.03,ENE,69,0.0,4.0,93,0.01,,---,0.00,VWS V14.01,2013-06-03 05:22:00,
2013-06-03 00:27:00,56.9,54.9,30.04,NE,55,3.0,3.0,93,0.01,,---,0.00,VWS V14.01,2013-06-03 05:27:00,
2013-06-03 00:32:00,56.8,54.8,30.04,SE,126,0.0,6.0,93,0.01,,---,0.00,VWS V14.01,2013-06-03 05:32:00,
2013-06-03 00:37:00,56.7,54.7,30.04,ENE,61,1.0,4.0,93,0.01,,---,0.00,VWS V14.01,2013-06-03 05:37:00,
2013-06-03 00:42:00,56.6,54.9,30.04,ENE,71,0.0,5.0,94,0.00,,---,0.00,VWS V14.01,2013-06-03 05:42:00,
2013-06-03 00:47:00,56.4,54.7,30.04,East,87,0.0,3.0,94,0.00,,---,0.00,VWS V14.01,2013-06-03 05:47:00,
2013-06-03 00:52:00,56.3,54.6,30.03,NE,51,0.0,3.0,94,0.00,,---,0.00,VWS V14.01,2013-06-03 05:52:00,
2013-06-03 00:57:00,56.2,54.5,30.03,ENE,67,0.0,5.0,94,0.00,,---,0.00,VWS V14.01,2013-06-03 05:57:00,
2013-06-03 01:02:00,56.1,54.4,30.03,ENE,62,1.0,4.0,94,0.00,,---,0.00,VWS V14.01,2013-06-03 06:02:00,
2013-06-03 01:07:00,56.0,54.3,30.03,ENE,76,0.0,6.0,94,0.00,,---,0.00,VWS V14.01,2013-06-03 06:07:00,
2013-06-03 01:12:00,55.9,54.2,30.03,NE,39,1.0,4.0,94,0.00,,---,0.00,VWS V14.01,2013-06-03 06:12:00,
2013-06-03 01:17:00,55.7,54.0,30.03,ENE,67,3.0,5.0,94,0.00,,---,0.00,VWS V14.01,2013-06-03 06:17:00,
2013-06-03 01:22:00,55.6,53.9,30.03,ENE,67,0.0,3.0,94,0.00,,---,0.00,VWS V14.01,2013-06-03 06:22:00,
2013-06-03 01:27:00,55.6,54.2,30.03,East,79,0.0,7.0,95,0.00,,---,0.00,VWS V14.01,2013-06-03 06:27:00,
2013-06-03 01:32:00,55.6,54.2,30.03,East,101,0.0,3.0,95,0.00,,---,0.00,VWS V14.01,2013-06-03 06:32:00,
2013-06-03 01:37:00,55.5,54.1,30.03,NE,49,0.0,4.0,95,0.00,,---,0.00,VWS V14.01,2013-06-03 06:37:00,
2013-06-03 01:42:00,55.6,54.2,30.03,NE,46,0.0,4.0,95,0.00,,---,0.00,VWS V14.01,2013-06-03 06:42:00,
2013-06-03 01:47:00,55.6,54.2,30.03,ENE,69,0.0,4.0,95,0.00,,---,0.00,VWS V14.01,2013-06-03 06:47:00,
2013-06-03 01:52:00,55.6,54.2,30.03,ENE,69,0.0,1.0,95,0.00,,---,0.00,VWS V14.01,2013-06-03 06:52:00,
2013-06-03 01:57:00,55.6,54.2,30.02,NNE,22,0.0,4.0,95,0.00,,---,0.00,VWS V14.01,2013-06-03 06:57:00,
2013-06-03 02:02:00,55.6,54.2,30.02,NE,39,0.0,5.0,95,0.00,,---,0.00,VWS V14.01,2013-06-03 07:02:00,
2013-06-03 02:07:00,55.5,54.1,30.02,NE,48,2.0,4.0,95,0.00,,---,0.00,VWS V14.01,2013-06-03 07:07:00,
2013-06-03 02:12:00,55.4,54.0,30.02,NNE,30,0.0,4.0,95,0.00,,---,0.00,VWS V14.01,2013-06-03 07:12:00,
2013-06-03 02:17:00,55.3,53.9,30.02,East,93,0.0,3.0,95,0.00,,---,0.00,VWS V14.01,2013-06-03 07:17:00,
2013-06-03 02:22:00,55.3,53.9,30.02,East,91,0.0,1.0,95,0.00,,---,0.00,VWS V14.01,2013-06-03 07:22:00,
2013-06-03 02:27:00,55.2,53.8,30.02,NNE,16,0.0,2.0,95,0.00,,---,0.00,VWS V14.01,2013-06-03 07:27:00,
2013-06-03 02:32:00,55.2,53.8,30.02,ENE,60,4.0,4.0,95,0.01,,---,0.01,VWS V14.01,2013-06-03 07:32:00,
2013-06-03 02:38:00,55.1,53.7,30.02,ENE,57,0.0,3.0,95,0.01,,---,0.01,VWS V14.01,2013-06-03 07:38:00,
2013-06-03 02:43:00,55.0,53.6,30.02,ENE,57,0.0,1.0,95,0.01,,---,0.01,VWS V14.01,2013-06-03 07:43:00,
2013-06-03 02:48:00,54.9,53.2,30.02,NNE,29,0.0,4.0,94,0.01,,---,0.01,VWS V14.01,2013-06-03 07:48:00,
2013-06-03 02:53:00,54.8,53.1,30.02,NNE,33,2.0,3.0,94,0.01,,---,0.01,VWS V14.01,2013-06-03 07:53:00,
2013-06-03 02:58:00,54.6,52.9,30.02,ENE,63,0.0,4.0,94,0.01,,---,0.01,VWS V14.01,2013-06-03 07:58:00,
2013-06-03 03:03:00,54.5,52.8,30.02,ENE,63,0.0,2.0,94,0.01,,---,0.01,VWS V14.01,2013-06-03 08:03:00,
2013-06-03 03:08:00,54.5,52.8,30.02,NE,48,0.0,5.0,94,0.01,,---,0.01,VWS V14.01,2013-06-03 08:08:00,
2013-06-03 03:13:00,54.4,52.7,30.02,NE,35,0.0,4.0,94,0.01,,---,0.01,VWS V14.01,2013-06-03 08:13:00,
2013-06-03 03:18:00,54.3,52.6,30.02,ENE,61,0.0,4.0,94,0.01,,---,0.01,VWS V14.01,2013-06-03 08:18:00,
2013-06-03 03:23:00,54.3,52.6,30.02,NE,49,0.0,4.0,94,0.01,,---,0.01,VWS V14.01,2013-06-03 08:23:00,
2013-06-03 03:28:00,54.2,52.5,30.02,ENE,67,0.0,0.0,94,0.01,,---,0.01,VWS V14.01,2013-06-03 08:28:00,
2013-06-03 03:33:00,54.2,52.5,30.02,ENE,64,1.0,2.0,94,0.01,,---,0.01,VWS V14.01,2013-06-03 08:33:00,
2013-06-03 03:38:00,54.1,52.4,30.02,ENE,64,0.0,3.0,94,0.00,,---,0.01,VWS V14.01,2013-06-03 08:38:00,
2013-06-03 03:43:00,54.1,52.4,30.02,East,86,2.0,2.0,94,0.00,,---,0.01,VWS V14.01,2013-06-03 08:43:00,
2013-06-03 03:48:00,54.0,52.0,30.02,East,87,0.0,5.0,93,0.00,,---,0.01,VWS V14.01,2013-06-03 08:48:00,
2013-06-03 03:53:00,54.0,52.0,30.02,East,87,0.0,3.0,93,0.00,,---,0.01,VWS V14.01,2013-06-03 08:53:00,
2013-06-03 03:58:00,54.0,52.0,30.02,NE,49,2.0,6.0,93,0.00,,---,0.01,VWS V14.01,2013-06-03 08:58:00,
2013-06-03 04:03:00,53.9,51.9,30.02,NE,49,0.0,1.0,93,0.00,,---,0.01,VWS V14.01,2013-06-03 09:03:00,
2013-06-03 04:08:00,53.9,51.9,30.02,NE,36,0.0,4.0,93,0.00,,---,0.01,VWS V14.01,2013-06-03 09:08:00,
2013-06-03 04:13:00,53.9,51.9,30.02,NE,36,2.0,4.0,93,0.00,,---,0.01,VWS V14.01,2013-06-03 09:13:00,
2013-06-03 04:18:00,53.8,51.8,30.02,ENE,71,0.0,4.0,93,0.00,,---,0.01,VWS V14.01,2013-06-03 09:18:00,
2013-06-03 04:23:00,53.7,51.7,30.02,NE,53,0.0,3.0,93,0.00,,---,0.01,VWS V14.01,2013-06-03 09:23:00,
2013-06-03 04:28:00,53.7,51.7,30.03,ENE,77,2.0,6.0,93,0.00,,---,0.01,VWS V14.01,2013-06-03 09:28:00,
2013-06-03 04:33:00,53.6,51.3,30.03,NNE,30,0.0,5.0,92,0.00,,---,0.01,VWS V14.01,2013-06-03 09:33:00,
2013-06-03 04:38:00,53.6,51.3,30.03,ENE,61,0.0,4.0,92,0.00,,---,0.01,VWS V14.01,2013-06-03 09:38:00,
2013-06-03 04:43:00,53.5,51.2,30.03,NE,51,1.0,5.0,92,0.00,,---,0.01,VWS V14.01,2013-06-03 09:43:00,
2013-06-03 04:48:00,53.4,51.1,30.03,North,11,0.0,4.0,92,0.00,,---,0.01,VWS V14.01,2013-06-03 09:48:00,
2013-06-03 04:53:00,53.4,51.1,30.03,North,5,0.0,5.0,92,0.00,,---,0.01,VWS V14.01,2013-06-03 09:53:00,
2013-06-03 04:58:00,53.3,51.0,30.03,North,9,0.0,2.0,92,0.00,,---,0.01,VWS V14.01,2013-06-03 09:58:00,
2013-06-03 05:03:00,53.3,51.0,30.04,NE,40,0.0,4.0,92,0.00,,---,0.01,VWS V14.01,2013-06-03 10:03:00,
2013-06-03 05:08:00,53.3,51.0,30.04,NE,40,0.0,3.0,92,0.00,,---,0.01,VWS V14.01,2013-06-03 10:08:00,
2013-06-03 05:13:00,53.2,50.9,30.04,ENE,62,0.0,5.0,92,0.00,,---,0.01,VWS V14.01,2013-06-03 10:13:00,
2013-06-03 05:18:00,53.2,51.2,30.04,NE,35,1.0,3.0,93,0.00,,---,0.01,VWS V14.01,2013-06-03 10:18:00,
2013-06-03 05:23:00,53.3,51.3,30.04,NE,35,0.0,2.0,93,0.00,,---,0.01,VWS V14.01,2013-06-03 10:23:00,
2013-06-03 05:28:00,53.3,51.3,30.05,NE,35,0.0,3.0,93,0.00,,---,0.01,VWS V14.01,2013-06-03 10:28:00,
2013-06-03 05:33:00,53.2,51.2,30.04,NE,35,0.0,1.0,93,0.01,,---,0.02,VWS V14.01,2013-06-03 10:33:00,
2013-06-03 05:38:00,53.2,51.2,30.05,NE,35,0.0,1.0,93,0.01,,---,0.02,VWS V14.01,2013-06-03 10:38:00,
2013-06-03 05:43:00,53.3,51.3,30.05,NE,35,2.0,2.0,93,0.01,,---,0.02,VWS V14.01,2013-06-03 10:43:00,
2013-06-03 05:48:00,53.2,51.2,30.05,ENE,71,0.0,3.0,93,0.01,,---,0.02,VWS V14.01,2013-06-03 10:48:00,
2013-06-03 05:53:00,53.2,51.2,30.05,ENE,60,0.0,3.0,93,0.01,,---,0.02,VWS V14.01,2013-06-03 10:53:00,
2013-06-03 05:58:00,53.2,51.2,30.06,NE,41,0.0,3.0,93,0.01,,---,0.02,VWS V14.01,2013-06-03 10:58:00,
2013-06-03 06:03:00,53.2,51.2,30.06,East,84,2.0,7.0,93,0.01,,---,0.02,VWS V14.01,2013-06-03 11:03:00,
2013-06-03 06:08:00,53.2,51.2,30.06,East,82,0.0,5.0,93,0.01,,---,0.02,VWS V14.01,2013-06-03 11:08:00,
2013-06-03 06:13:00,53.2,51.2,30.07,East,82,0.0,2.0,93,0.01,,---,0.02,VWS V14.01,2013-06-03 11:13:00,
2013-06-03 06:18:00,53.3,51.3,30.07,East,81,0.0,2.0,93,0.01,,---,0.02,VWS V14.01,2013-06-03 11:18:00,
2013-06-03 06:23:00,53.3,51.0,30.07,East,81,0.0,2.0,92,0.01,,---,0.02,VWS V14.01,2013-06-03 11:23:00,
2013-06-03 06:28:00,53.5,51.2,30.07,East,101,1.0,3.0,92,0.01,,---,0.02,VWS V14.01,2013-06-03 11:28:00,
2013-06-03 06:33:00,53.5,51.2,30.07,East,82,2.0,5.0,92,0.00,,---,0.02,VWS V14.01,2013-06-03 11:33:00,
2013-06-03 06:38:00,53.5,50.9,30.07,NE,54,2.0,4.0,91,0.00,,---,0.02,VWS V14.01,2013-06-03 11:38:00,
2013-06-03 06:43:00,53.5,50.6,30.07,NE,54,0.0,2.0,90,0.00,,---,0.02,VWS V14.01,2013-06-03 11:43:00,
2013-06-03 06:48:00,53.6,50.7,30.07,NE,55,1.0,3.0,90,0.00,,---,0.02,VWS V14.01,2013-06-03 11:48:00,
2013-06-03 06:53:00,53.7,50.8,30.08,East,86,0.0,7.0,90,0.00,,---,0.02,VWS V14.01,2013-06-03 11:53:00,
2013-06-03 06:59:00,53.7,50.5,30.08,East,86,0.0,3.0,89,0.00,,---,0.02,VWS V14.01,2013-06-03 11:59:00,
2013-06-03 07:04:00,53.7,50.8,30.07,East,80,3.0,5.0,90,0.00,,---,0.02,VWS V14.01,2013-06-03 12:04:00,
2013-06-03 07:09:00,53.8,50.6,30.07,East,84,0.0,5.0,89,0.00,,---,0.02,VWS V14.01,2013-06-03 12:09:00,
2013-06-03 07:14:00,53.9,50.7,30.07,East,98,2.0,7.0,89,0.00,,---,0.02,VWS V14.01,2013-06-03 12:14:00,
2013-06-03 07:19:00,53.9,50.4,30.08,East,99,1.0,5.0,88,0.00,,---,0.02,VWS V14.01,2013-06-03 12:19:00,
2013-06-03 07:24:00,54.0,50.2,30.08,East,87,0.0,6.0,87,0.00,,---,0.02,VWS V14.01,2013-06-03 12:24:00,
2013-06-03 07:29:00,54.1,50.6,30.08,NNE,33,0.0,8.0,88,0.00,,---,0.02,VWS V14.01,2013-06-03 12:29:00,
2013-06-03 07:34:00,54.2,50.7,30.09,NE,55,1.0,1.0,88,0.00,,---,0.02,VWS V14.01,2013-06-03 12:34:00,
2013-06-03 07:39:00,54.4,50.9,30.09,NE,37,0.0,2.0,88,0.00,,---,0.02,VWS V14.01,2013-06-03 12:39:00,
2013-06-03 07:44:00,54.5,51.0,30.10,NE,37,0.0,2.0,88,0.00,,---,0.02,VWS V14.01,2013-06-03 12:44:00,
2013-06-03 07:49:00,54.7,50.9,30.10,NE,38,0.0,4.0,87,0.00,,---,0.02,VWS V14.01,2013-06-03 12:49:00,
2013-06-03 07:54:00,54.8,50.4,30.10,NE,40,2.0,5.0,85,0.00,,---,0.02,VWS V14.01,2013-06-03 12:54:00,
2013-06-03 07:59:00,54.8,50.4,30.10,NE,42,5.0,5.0,85,0.00,,---,0.02,VWS V14.01,2013-06-03 12:59:00,
2013-06-03 08:04:00,54.9,50.5,30.10,NE,46,3.0,5.0,85,0.00,,---,0.02,VWS V14.01,2013-06-03 13:04:00,
2013-06-03 08:09:00,55.1,50.7,30.10,NE,40,0.0,4.0,85,0.00,,---,0.02,VWS V14.01,2013-06-03 13:09:00,
2013-06-03 08:14:00,55.2,50.5,30.10,NE,40,3.0,3.0,84,0.00,,---,0.02,VWS V14.01,2013-06-03 13:14:00,
2013-06-03 08:19:00,55.3,50.9,30.11,NNE,22,2.0,5.0,85,0.00,,---,0.02,VWS V14.01,2013-06-03 13:19:00,
2013-06-03 08:24:00,55.6,51.2,30.11,ENE,74,3.0,4.0,85,0.00,,---,0.02,VWS V14.01,2013-06-03 13:24:00,
2013-06-03 08:29:00,55.8,50.7,30.11,ENE,74,1.0,4.0,83,0.00,,---,0.02,VWS V14.01,2013-06-03 13:29:00,
2013-06-03 08:34:00,56.0,50.9,30.12,NNE,31,3.0,5.0,83,0.00,,---,0.02,VWS V14.01,2013-06-03 13:34:00,
2013-06-03 08:39:00,56.2,51.1,30.12,NNE,31,1.0,4.0,83,0.00,,---,0.02,VWS V14.01,2013-06-03 13:39:00,
2013-06-03 08:44:00,56.2,50.5,30.12,NE,39,1.0,5.0,81,0.00,,---,0.02,VWS V14.01,2013-06-03 13:44:00,
2013-06-03 08:49:00,56.3,50.2,30.12,North,355,4.0,4.0,80,0.00,,---,0.02,VWS V14.01,2013-06-03 13:49:00,
2013-06-03 08:54:00,56.4,50.3,30.12,North,355,2.0,4.0,80,0.00,,---,0.02,VWS V14.01,2013-06-03 13:54:00,
2013-06-03 08:59:00,56.6,50.5,30.12,North,5,1.0,3.0,80,0.00,,---,0.02,VWS V14.01,2013-06-03 13:59:00,
2013-06-03 09:04:00,56.8,50.7,30.12,NE,40,0.0,5.0,80,0.00,,---,0.02,VWS V14.01,2013-06-03 14:04:00,
2013-06-03 09:09:00,56.9,50.1,30.12,NE,40,0.0,4.0,78,0.00,,---,0.02,VWS V14.01,2013-06-03 14:09:00,
2013-06-03 09:14:00,57.0,50.9,30.12,NNW,348,5.0,6.0,80,0.00,,---,0.02,VWS V14.01,2013-06-03 14:14:00,
2013-06-03 09:19:00,57.1,51.0,30.12,NNW,331,3.0,6.0,80,0.00,,---,0.02,VWS V14.01,2013-06-03 14:19:00,
2013-06-03 09:24:00,57.3,51.5,30.11,NNE,20,3.0,4.0,81,0.00,,---,0.02,VWS V14.01,2013-06-03 14:24:00,
2013-06-03 09:29:00,57.5,50.4,30.11,NE,55,3.0,7.0,77,0.01,,---,0.03,VWS V14.01,2013-06-03 14:29:00,
2013-06-03 09:34:00,57.7,50.2,30.11,NE,38,2.0,8.0,76,0.01,,---,0.03,VWS V14.01,2013-06-03 14:34:00,
2013-06-03 09:39:00,57.9,50.7,30.11,NNE,30,2.0,7.0,77,0.01,,---,0.03,VWS V14.01,2013-06-03 14:39:00,
2013-06-03 09:44:00,58.2,50.7,30.11,ENE,72,3.0,7.0,76,0.01,,---,0.03,VWS V14.01,2013-06-03 14:44:00,
2013-06-03 09:49:00,58.5,51.0,30.10,NE,53,1.0,6.0,76,0.01,,---,0.03,VWS V14.01,2013-06-03 14:49:00,
2013-06-03 09:54:00,58.8,50.5,30.10,North,355,4.0,9.0,74,0.01,,---,0.03,VWS V14.01,2013-06-03 14:54:00,
2013-06-03 09:59:00,59.1,50.5,30.10,NE,48,2.0,7.0,73,0.01,,---,0.03,VWS V14.01,2013-06-03 14:59:00,
2013-06-03 10:04:00,59.5,50.1,30.10,North,355,2.0,8.0,71,0.01,,---,0.03,VWS V14.01,2013-06-03 15:04:00,
2013-06-03 10:09:00,59.8,50.8,30.09,NW,322,0.0,10.0,72,0.01,,---,0.03,VWS V14.01,2013-06-03 15:09:00,
2013-06-03 10:14:00,60.1,50.3,30.10,NNE,28,2.0,9.0,70,0.01,,---,0.03,VWS V14.01,2013-06-03 15:14:00,
2013-06-03 10:19:00,60.4,50.6,30.09,NNW,333,5.0,11.0,70,0.01,,---,0.03,VWS V14.01,2013-06-03 15:19:00,
2013-06-03 10:24:00,60.4,51.0,30.10,NNE,21,5.0,8.0,71,0.01,,---,0.03,VWS V14.01,2013-06-03 15:24:00,
2013-06-03 10:29:00,60.2,50.0,30.10,NNE,31,9.0,9.0,69,0.01,,---,0.03,VWS V14.01,2013-06-03 15:29:00,
2013-06-03 10:34:00,60.4,51.0,30.09,NNE,24,5.0,8.0,71,0.00,,---,0.03,VWS V14.01,2013-06-03 15:34:00,
2013-06-03 10:40:00,60.7,50.9,30.10,NNW,331,5.0,10.0,70,0.00,,---,0.03,VWS V14.01,2013-06-03 15:40:00,
2013-06-03 10:45:00,60.7,50.1,30.09,NNW,333,5.0,9.0,68,0.00,,---,0.03,VWS V14.01,2013-06-03 15:45:00,
2013-06-03 10:50:00,60.8,50.2,30.10,NNW,338,0.0,8.0,68,0.00,,---,0.03,VWS V14.01,2013-06-03 15:50:00,
2013-06-03 10:55:00,61.2,50.6,30.09,NNW,329,8.0,10.0,68,0.00,,---,0.03,VWS V14.01,2013-06-03 15:55:00,
2013-06-03 11:00:00,61.0,50.0,30.10,NW,313,1.0,10.0,67,0.00,,---,0.03,VWS V14.01,2013-06-03 16:00:00,
2013-06-03 11:05:00,60.7,50.1,30.09,NNW,327,5.0,11.0,68,0.00,,---,0.03,VWS V14.01,2013-06-03 16:05:00,
2013-06-03 11:10:00,60.6,50.0,30.09,NE,36,4.0,11.0,68,0.00,,---,0.03,VWS V14.01,2013-06-03 16:10:00,
2013-06-03 11:15:00,61.0,50.0,30.09,NNE,12,4.0,10.0,67,0.00,,---,0.03,VWS V14.01,2013-06-03 16:15:00,
2013-06-03 11:20:00,61.3,50.3,30.09,NNE,26,0.0,7.0,67,0.00,,---,0.03,VWS V14.01,2013-06-03 16:20:00,
2013-06-03 11:25:00,61.6,51.0,30.09,NNW,344,2.0,7.0,68,0.00,,---,0.03,VWS V14.01,2013-06-03 16:25:00,
2013-06-03 11:30:00,61.3,51.1,30.09,NNE,26,4.0,8.0,69,0.00,,---,0.03,VWS V14.01,2013-06-03 16:30:00,
2013-06-03 11:35:00,61.1,50.5,30.09,North,349,4.0,9.0,68,0.01,,---,0.04,VWS V14.01,2013-06-03 16:35:00,
2013-06-03 11:40:00,61.1,49.3,30.09,NNW,334,3.0,5.0,65,0.01,,---,0.04,VWS V14.01,2013-06-03 16:40:00,
2013-06-03 11:45:00,61.2,50.6,30.09,NNW,340,2.0,8.0,68,0.01,,---,0.04,VWS V14.01,2013-06-03 16:45:00,
2013-06-03 11:50:00,61.0,50.8,30.08,NNE,17,5.0,6.0,69,0.01,,---,0.04,VWS V14.01,2013-06-03 16:50:00,
2013-06-03 11:55:00,61.2,50.6,30.08,North,355,5.0,9.0,68,0.01,,---,0.04,VWS V14.01,2013-06-03 16:55:00,
2013-06-03 12:00:00,61.7,49.8,30.08,North,355,3.0,8.0,65,0.01,,---,0.04,VWS V14.01,2013-06-03 17:00:00,
2013-06-03 12:05:00,61.8,50.7,30.08,NNE,27,3.0,7.0,67,0.01,,---,0.04,VWS V14.01,2013-06-03 17:05:00,
2013-06-03 12:10:00,61.7,50.6,30.08,North,5,5.0,6.0,67,0.01,,---,0.04,VWS V14.01,2013-06-03 17:10:00,
2013-06-03 12:15:00,61.8,49.1,30.08,NNE,16,2.0,6.0,63,0.01,,---,0.04,VWS V14.01,2013-06-03 17:15:00,
2013-06-03 12:20:00,62.0,51.7,30.08,NNE,16,0.0,4.0,69,0.01,,---,0.04,VWS V14.01,2013-06-03 17:20:00,
2013-06-03 12:25:00,62.5,51.8,30.07,East,98,1.0,7.0,68,0.01,,---,0.04,VWS V14.01,2013-06-03 17:25:00,
2013-06-03 12:30:00,63.1,51.2,30.07,NNE,17,0.0,10.0,65,0.01,,---,0.04,VWS V14.01,2013-06-03 17:30:00,
2013-06-03 12:35:00,63.5,52.0,30.07,ENE,62,2.0,5.0,66,0.01,,---,0.04,VWS V14.01,2013-06-03 17:35:00,
2013-06-03 12:40:00,63.5,51.1,30.07,NNE,29,4.0,6.0,64,0.00,,---,0.04,VWS V14.01,2013-06-03 17:40:00,
2013-06-03 12:45:00,63.3,51.3,30.07,NNE,15,1.0,6.0,65,0.01,,---,0.05,VWS V14.01,2013-06-03 17:45:00,
2013-06-03 12:50:00,63.4,51.4,30.07,North,360,2.0,3.0,65,0.01,,---,0.05,VWS V14.01,2013-06-03 17:50:00,
2013-06-03 12:55:00,63.8,51.0,30.07,ESE,112,0.0,5.0,63,0.01,,---,0.05,VWS V14.01,2013-06-03 17:55:00,
2013-06-03 13:00:00,64.2,51.8,30.07,NNW,331,0.0,6.0,64,0.01,,---,0.05,VWS V14.01,2013-06-03 18:00:00,
2013-06-03 13:05:00,64.3,51.9,30.07,NE,56,1.0,7.0,64,0.01,,---,0.05,VWS V14.01,2013-06-03 18:05:00,
2013-06-03 13:10:00,64.5,52.5,30.07,ENE,77,2.0,7.0,65,0.01,,---,0.05,VWS V14.01,2013-06-03 18:10:00,
2013-06-03 13:15:00,64.7,51.4,30.07,NNW,343,2.0,7.0,62,0.01,,---,0.05,VWS V14.01,2013-06-03 18:15:00,
2013-06-03 13:20:00,64.8,51.0,30.06,NNE,32,4.0,8.0,61,0.01,,---,0.05,VWS V14.01,2013-06-03 18:20:00,
2013-06-03 13:25:00,64.9,50.7,30.06,NE,39,2.0,9.0,60,0.01,,---,0.05,VWS V14.01,2013-06-03 18:25:00,
2013-06-03 13:30:00,65.1,51.8,30.06,East,92,2.0,6.0,62,0.02,,---,0.06,VWS V14.01,2013-06-03 18:30:00,
2013-06-03 13:35:00,65.3,51.1,30.06,North,5,0.0,8.0,60,0.02,,---,0.06,VWS V14.01,2013-06-03 18:35:00,
2013-06-03 13:40:00,65.4,51.6,30.06,NNW,344,0.0,7.0,61,0.02,,---,0.06,VWS V14.01,2013-06-03 18:40:00,
2013-06-03 13:45:00,65.4,50.2,30.06,NE,50,6.0,9.0,58,0.02,,---,0.06,VWS V14.01,2013-06-03 18:45:00,
2013-06-03 13:50:00,65.5,50.8,30.05,NNE,29,2.0,11.0,59,0.01,,---,0.06,VWS V14.01,2013-06-03 18:50:00,
2013-06-03 13:55:00,65.5,50.8,30.05,NNE,21,0.0,7.0,59,0.01,,---,0.06,VWS V14.01,2013-06-03 18:55:00,
2013-06-03 14:00:00,65.7,51.5,30.05,East,94,7.0,7.0,60,0.01,,---,0.06,VWS V14.01,2013-06-03 19:00:00,
2013-06-03 14:05:00,65.8,52.9,30.05,East,96,6.0,8.0,63,0.01,,---,0.06,VWS V14.01,2013-06-03 19:05:00,
2013-06-03 14:10:00,65.8,50.2,30.04,ESE,117,1.0,6.0,57,0.01,,---,0.06,VWS V14.01,2013-06-03 19:10:00,
2013-06-03 14:15:00,65.9,51.2,30.04,NNE,22,0.0,11.0,59,0.02,,---,0.07,VWS V14.01,2013-06-03 19:15:00,
2013-06-03 14:20:00,66.0,50.8,30.04,East,83,0.0,8.0,58,0.02,,---,0.07,VWS V14.01,2013-06-03 19:20:00,
2013-06-03 14:25:00,66.2,50.5,30.04,ENE,65,5.0,8.0,57,0.02,,---,0.07,VWS V14.01,2013-06-03 19:25:00,
2013-06-03 14:30:00,66.3,51.6,30.04,ENE,69,2.0,8.0,59,0.02,,---,0.07,VWS V14.01,2013-06-03 19:30:00,
2013-06-03 14:35:00,66.4,50.7,30.04,ENE,57,4.0,4.0,57,0.01,,---,0.07,VWS V14.01,2013-06-03 19:35:00,
2013-06-03 14:40:00,66.5,51.3,30.04,East,96,3.0,6.0,58,0.01,,---,0.07,VWS V14.01,2013-06-03 19:40:00,
2013-06-03 14:45:00,66.5,51.3,30.04,NE,37,2.0,5.0,58,0.01,,---,0.07,VWS V14.01,2013-06-03 19:45:00,
2013-06-03 14:50:00,66.6,51.8,30.04,NE,47,4.0,7.0,59,0.01,,---,0.07,VWS V14.01,2013-06-03 19:50:00,
2013-06-03 14:55:00,66.7,51.5,30.03,East,90,5.0,8.0,58,0.01,,---,0.07,VWS V14.01,2013-06-03 19:55:00,
2013-06-03 15:00:00,66.9,51.7,30.03,ENE,76,3.0,7.0,58,0.02,,---,0.08,VWS V14.01,2013-06-03 20:00:00,
2013-06-03 15:05:00,66.9,52.1,30.03,SE,129,2.0,9.0,59,0.02,,---,0.08,VWS V14.01,2013-06-03 20:05:00,
2013-06-03 15:10:00,66.8,51.6,30.03,ESE,110,0.0,1.0,58,0.02,,---,0.08,VWS V14.01,2013-06-03 20:10:00,
2013-06-03 15:15:00,66.8,52.5,30.03,NNE,31,0.0,0.0,60,0.01,,---,0.08,VWS V14.01,2013-06-03 20:15:00,
2013-06-03 15:20:00,67.0,53.1,30.03,NE,50,1.0,1.0,61,0.01,,---,0.08,VWS V14.01,2013-06-03 20:20:00,
2013-06-03 15:25:00,67.1,52.8,30.02,East,89,0.0,11.0,60,0.01,,---,0.08,VWS V14.01,2013-06-03 20:25:00,
2013-06-03 15:30:00,67.2,51.9,30.02,ENE,76,5.0,5.0,58,0.01,,---,0.08,VWS V14.01,2013-06-03 20:30:00,
2013-06-03 15:35:00,67.4,51.2,30.02,NNE,31,2.0,2.0,56,0.01,,---,0.08,VWS V14.01,2013-06-03 20:35:00,
2013-06-03 15:40:00,67.5,52.2,30.02,NNE,32,0.0,0.0,58,0.01,,---,0.08,VWS V14.01,2013-06-03 20:40:00,
2013-06-03 15:45:00,67.6,51.8,30.02,NE,53,1.0,4.0,57,0.01,,---,0.08,VWS V14.01,2013-06-03 20:45:00,
2013-06-03 15:50:00,67.7,53.3,30.02,ENE,59,0.0,0.0,60,0.01,,---,0.08,VWS V14.01,2013-06-03 20:50:00,
2013-06-03 15:55:00,67.8,52.0,30.02,ENE,67,1.0,3.0,57,0.01,,---,0.08,VWS V14.01,2013-06-03 20:55:00,
2013-06-03 16:00:00,67.8,52.0,30.02,NE,40,0.0,0.0,57,0.00,,---,0.08,VWS V14.01,2013-06-03 21:00:00,
2013-06-03 16:05:00,67.9,51.6,30.02,ENE,59,3.0,3.0,56,0.01,,---,0.09,VWS V14.01,2013-06-03 21:05:00,
2013-06-03 16:10:00,67.9,52.6,30.02,East,81,5.0,5.0,58,0.01,,---,0.09,VWS V14.01,2013-06-03 21:10:00,
2013-06-03 16:15:00,67.9,52.6,30.02,ENE,67,1.0,4.0,58,0.01,,---,0.09,VWS V14.01,2013-06-03 21:15:00,
2013-06-03 16:20:00,68.0,52.2,30.02,ENE,70,3.0,4.0,57,0.01,,---,0.09,VWS V14.01,2013-06-03 21:20:00,
2013-06-03 16:25:00,68.0,51.7,30.02,NNE,24,0.0,2.0,56,0.01,,---,0.09,VWS V14.01,2013-06-03 21:25:00,
2013-06-03 16:31:00,68.1,52.8,30.02,NNW,344,3.0,4.0,58,0.01,,---,0.09,VWS V14.01,2013-06-03 21:31:00,
2013-06-03 16:36:00,68.3,53.4,30.03,ENE,60,0.0,0.0,59,0.01,,---,0.09,VWS V14.01,2013-06-03 21:36:00,
2013-06-03 16:41:00,68.5,52.2,30.02,East,84,1.0,1.0,56,0.01,,---,0.09,VWS V14.01,2013-06-03 21:41:00,
2013-06-03 16:46:00,68.7,51.9,30.03,East,93,2.0,7.0,55,0.01,,---,0.09,VWS V14.01,2013-06-03 21:46:00,
2013-06-03 16:51:00,68.8,52.5,30.02,NE,49,3.0,4.0,56,0.01,,---,0.09,VWS V14.01,2013-06-03 21:51:00,
2013-06-03 16:56:00,69.0,53.6,30.02,ENE,57,7.0,7.0,58,0.01,,---,0.09,VWS V14.01,2013-06-03 21:56:00,
2013-06-03 17:01:00,69.0,53.2,30.02,NE,38,2.0,2.0,57,0.01,,---,0.09,VWS V14.01,2013-06-03 22:01:00,
2013-06-03 17:06:00,69.0,53.2,30.02,ENE,58,3.0,5.0,57,0.00,,---,0.09,VWS V14.01,2013-06-03 22:06:00,
2013-06-03 17:11:00,69.1,53.2,30.02,NE,55,0.0,2.0,57,0.00,,---,0.09,VWS V14.01,2013-06-03 22:11:00,
2013-06-03 17:16:00,69.2,52.8,30.02,ESE,109,0.0,0.0,56,0.00,,---,0.09,VWS V14.01,2013-06-03 22:16:00,
2013-06-03 17:21:00,69.4,53.5,30.02,ENE,69,2.0,3.0,57,0.01,,---,0.10,VWS V14.01,2013-06-03 22:21:00,
2013-06-03 17:26:00,69.5,53.1,30.02,NE,52,3.0,3.0,56,0.01,,---,0.10,VWS V14.01,2013-06-03 22:26:00,
2013-06-03 17:31:00,69.5,53.1,30.02,NNE,32,0.0,0.0,56,0.01,,---,0.10,VWS V14.01,2013-06-03 22:31:00,
2013-06-03 17:36:00,69.5,53.6,30.02,NE,40,4.0,5.0,57,0.01,,---,0.10,VWS V14.01,2013-06-03 22:36:00,
2013-06-03 17:41:00,69.2,52.8,30.02,NNE,23,0.0,3.0,56,0.01,,---,0.10,VWS V14.01,2013-06-03 22:41:00,
2013-06-03 17:46:00,68.9,54.0,30.02,NE,42,0.0,3.0,59,0.01,,---,0.10,VWS V14.01,2013-06-03 22:46:00,
2013-06-03 17:51:00,68.8,53.4,30.02,ENE,75,0.0,3.0,58,0.01,,---,0.10,VWS V14.01,2013-06-03 22:51:00,
2013-06-03 17:56:00,68.8,54.4,30.02,East,101,2.0,8.0,60,0.01,,---,0.10,VWS V14.01,2013-06-03 22:56:00,
2013-06-03 18:01:00,68.6,53.7,30.02,ESE,105,1.0,2.0,59,0.01,,---,0.10,VWS V14.01,2013-06-03 23:01:00,
2013-06-03 18:06:00,68.1,52.3,30.02,NNE,28,5.0,5.0,57,0.01,,---,0.10,VWS V14.01,2013-06-03 23:06:00,
2013-06-03 18:12:00,67.8,53.4,30.02,NNE,33,1.0,2.0,60,0.01,,---,0.10,VWS V14.01,2013-06-03 23:12:00,
2013-06-03 18:17:00,67.6,53.2,30.02,ESE,107,1.0,3.0,60,0.01,,---,0.10,VWS V14.01,2013-06-03 23:17:00,
2013-06-03 18:22:00,67.2,52.9,30.02,East,96,0.0,0.0,60,0.00,,---,0.10,VWS V14.01,2013-06-03 23:22:00,
2013-06-03 18:27:00,66.9,52.6,30.02,East,96,0.0,1.0,60,0.00,,---,0.10,VWS V14.01,2013-06-03 23:27:00,
2013-06-03 18:32:00,66.6,53.2,30.02,East,96,0.0,0.0,62,0.00,,---,0.10,VWS V14.01,2013-06-03 23:32:00,
2013-06-03 18:37:00,66.4,53.9,30.02,East,79,2.0,5.0,64,0.00,,---,0.10,VWS V14.01,2013-06-03 23:37:00,
2013-06-03 18:42:00,66.2,53.7,30.02,ESE,105,0.0,1.0,64,0.00,,---,0.10,VWS V14.01,2013-06-03 23:42:00,
2013-06-03 18:47:00,65.9,53.0,30.02,North,5,2.0,4.0,63,0.00,,---,0.10,VWS V14.01,2013-06-03 23:47:00,
2013-06-03 18:52:00,65.6,52.7,30.02,NNE,32,0.0,2.0,63,0.00,,---,0.10,VWS V14.01,2013-06-03 23:52:00,
2013-06-03 18:57:00,65.4,52.9,30.03,ESE,119,0.0,2.0,64,0.00,,---,0.10,VWS V14.01,2013-06-03 23:57:00,
2013-06-03 19:02:00,65.2,52.3,30.02,ESE,119,2.0,3.0,63,0.00,,---,0.10,VWS V14.01,2013-06-04 00:02:00,
2013-06-03 19:07:00,65.0,52.5,30.02,ESE,119,0.0,1.0,64,0.00,,---,0.10,VWS V14.01,2013-06-04 00:07:00,
2013-06-03 19:12:00,64.8,52.8,30.02,ESE,119,2.0,2.0,65,0.00,,---,0.10,VWS V14.01,2013-06-04 00:12:00,
2013-06-03 19:17:00,64.7,52.7,30.03,ESE,119,1.0,1.0,65,0.00,,---,0.10,VWS V14.01,2013-06-04 00:17:00,
2013-06-03 19:22:00,64.5,52.9,30.03,ESE,119,1.0,3.0,66,0.00,,---,0.10,VWS V14.01,2013-06-04 00:22:00,
2013-06-03 19:27:00,64.3,52.7,30.03,ESE,119,0.0,2.0,66,0.00,,---,0.10,VWS V14.01,2013-06-04 00:27:00,
2013-06-03 19:32:00,64.2,52.6,30.03,ESE,119,0.0,0.0,66,0.01,,---,0.11,VWS V14.01,2013-06-04 00:32:00,
2013-06-03 19:37:00,64.0,52.8,30.03,ENE,78,0.0,3.0,67,0.01,,---,0.11,VWS V14.01,2013-06-04 00:37:00,
2013-06-03 19:42:00,63.8,53.0,30.03,East,96,0.0,3.0,68,0.01,,---,0.11,VWS V14.01,2013-06-04 00:42:00,
2013-06-03 19:47:00,63.5,52.8,30.03,East,98,0.0,2.0,68,0.01,,---,0.11,VWS V14.01,2013-06-04 00:47:00,
2013-06-03 19:52:00,63.2,52.9,30.03,East,84,2.0,5.0,69,0.01,,---,0.11,VWS V14.01,2013-06-04 00:52:00,
2013-06-03 19:57:00,63.0,53.1,30.03,East,90,0.0,2.0,70,0.01,,---,0.11,VWS V14.01,2013-06-04 00:57:00,
2013-06-03 20:02:00,62.8,53.3,30.02,East,90,1.0,2.0,71,0.01,,---,0.11,VWS V14.01,2013-06-04 01:02:00,
2013-06-03 20:07:00,62.6,52.7,30.02,East,90,1.0,2.0,70,0.01,,---,0.11,VWS V14.01,2013-06-04 01:07:00,
2013-06-03 20:12:00,62.3,52.4,30.02,East,90,1.0,2.0,70,0.01,,---,0.11,VWS V14.01,2013-06-04 01:12:00,
2013-06-03 20:17:00,62.0,52.5,30.03,East,90,1.0,1.0,71,0.01,,---,0.11,VWS V14.01,2013-06-04 01:17:00,
2013-06-03 20:22:00,61.7,52.6,30.03,East,90,0.0,1.0,72,0.01,,---,0.11,VWS V14.01,2013-06-04 01:22:00,
2013-06-03 20:27:00,61.4,53.0,30.03,East,90,0.0,0.0,74,0.01,,---,0.11,VWS V14.01,2013-06-04 01:27:00,
2013-06-03 20:32:00,61.1,53.5,30.03,East,90,0.0,1.0,76,0.00,,---,0.11,VWS V14.01,2013-06-04 01:32:00,
2013-06-03 20:37:00,60.9,54.0,30.04,East,90,0.0,1.0,78,0.00,,---,0.11,VWS V14.01,2013-06-04 01:37:00,
2013-06-03 20:42:00,60.6,54.4,30.04,East,90,0.0,0.0,80,0.00,,---,0.11,VWS V14.01,2013-06-04 01:42:00,
2013-06-03 20:47:00,60.3,54.1,30.04,East,90,0.0,0.0,80,0.00,,---,0.11,VWS V14.01,2013-06-04 01:47:00,
2013-06-03 20:52:00,60.0,53.8,30.04,East,90,0.0,0.0,80,0.00,,---,0.11,VWS V14.01,2013-06-04 01:52:00,
2013-06-03 20:57:00,59.7,54.5,30.04,East,90,0.0,1.0,83,0.00,,---,0.11,VWS V14.01,2013-06-04 01:57:00,
2013-06-03 21:02:00,59.4,53.9,30.05,East,90,0.0,0.0,82,0.00,,---,0.11,VWS V14.01,2013-06-04 02:02:00,
2013-06-03 21:08:00,59.1,53.6,30.05,East,90,0.0,0.0,82,0.00,,---,0.11,VWS V14.01,2013-06-04 02:08:00,
2013-06-03 21:13:00,58.8,53.0,30.05,East,90,1.0,2.0,81,0.00,,---,0.11,VWS V14.01,2013-06-04 02:13:00,
2013-06-03 21:18:00,58.6,53.1,30.05,East,90,0.0,2.0,82,0.00,,---,0.11,VWS V14.01,2013-06-04 02:18:00,
2013-06-03 21:23:00,58.4,52.9,30.05,East,90,0.0,0.0,82,0.00,,---,0.11,VWS V14.01,2013-06-04 02:23:00,
2013-06-03 21:28:00,58.2,53.1,30.05,East,90,0.0,0.0,83,0.00,,---,0.11,VWS V14.01,2013-06-04 02:28:00,
2013-06-03 21:33:00,58.1,53.0,30.05,East,90,0.0,1.0,83,0.00,,---,0.11,VWS V14.01,2013-06-04 02:33:00,
2013-06-03 21:38:00,57.9,52.8,30.05,East,90,0.0,1.0,83,0.00,,---,0.11,VWS V14.01,2013-06-04 02:38:00,
2013-06-03 21:43:00,57.8,53.0,30.06,East,90,0.0,0.0,84,0.00,,---,0.11,VWS V14.01,2013-06-04 02:43:00,
2013-06-03 21:48:00,57.7,53.2,30.06,East,90,0.0,0.0,85,0.00,,---,0.11,VWS V14.01,2013-06-04 02:48:00,
2013-06-03 21:53:00,57.6,53.5,30.06,East,90,0.0,1.0,86,0.00,,---,0.11,VWS V14.01,2013-06-04 02:53:00,
2013-06-03 21:58:00,57.5,53.3,30.06,East,90,0.0,1.0,86,0.00,,---,0.11,VWS V14.01,2013-06-04 02:58:00,
2013-06-03 22:03:00,57.4,53.6,30.06,East,90,0.0,2.0,87,0.00,,---,0.11,VWS V14.01,2013-06-04 03:03:00,
2013-06-03 22:08:00,57.3,53.5,30.06,East,90,2.0,2.0,87,0.00,,---,0.11,VWS V14.01,2013-06-04 03:08:00,
2013-06-03 22:13:00,57.2,53.7,30.06,East,90,0.0,2.0,88,0.00,,---,0.11,VWS V14.01,2013-06-04 03:13:00,
2013-06-03 22:18:00,57.1,53.9,30.06,East,90,0.0,0.0,89,0.00,,---,0.11,VWS V14.01,2013-06-04 03:18:00,
2013-06-03 22:23:00,57.0,53.8,30.06,East,90,0.0,0.0,89,0.00,,---,0.11,VWS V14.01,2013-06-04 03:23:00,
2013-06-03 22:28:00,56.8,53.6,30.06,East,90,1.0,1.0,89,0.00,,---,0.11,VWS V14.01,2013-06-04 03:28:00,
2013-06-03 22:33:00,56.7,53.5,30.06,East,90,0.0,0.0,89,0.00,,---,0.11,VWS V14.01,2013-06-04 03:33:00,
2013-06-03 22:38:00,56.5,53.3,30.06,East,90,1.0,2.0,89,0.00,,---,0.11,VWS V14.01,2013-06-04 03:38:00,
2013-06-03 22:43:00,56.4,53.2,30.06,East,90,1.0,2.0,89,0.00,,---,0.11,VWS V14.01,2013-06-04 03:43:00,
2013-06-03 22:48:00,56.2,53.0,30.06,East,90,1.0,2.0,89,0.00,,---,0.11,VWS V14.01,2013-06-04 03:48:00,
2013-06-03 22:53:00,56.2,53.0,30.06,East,90,1.0,3.0,89,0.01,,---,0.12,VWS V14.01,2013-06-04 03:53:00,
2013-06-03 22:58:00,56.1,52.9,30.06,East,90,0.0,2.0,89,0.01,,---,0.12,VWS V14.01,2013-06-04 03:58:00,
2013-06-03 23:01:00,56.0,53.1,30.06,East,90,0.0,1.0,90,0.01,,---,0.12,VWS V14.01,2013-06-04 04:01:00,
2013-06-03 23:02:00,56.0,53.1,30.06,East,90,0.0,1.0,90,0.01,,---,0.12,VWS V14.01,2013-06-04 04:02:00,
2013-06-03 23:07:00,56.0,53.1,30.06,East,90,0.0,2.0,90,0.01,,---,0.12,VWS V14.01,2013-06-04 04:07:00,
2013-06-03 23:12:00,55.9,53.0,30.06,East,90,0.0,1.0,90,0.01,,---,0.12,VWS V14.01,2013-06-04 04:12:00,
2013-06-03 23:17:00,55.9,53.0,30.06,East,90,2.0,2.0,90,0.01,,---,0.12,VWS V14.01,2013-06-04 04:17:00,
2013-06-03 23:22:00,55.9,53.0,30.06,East,92,0.0,3.0,90,0.01,,---,0.12,VWS V14.01,2013-06-04 04:22:00,
2013-06-03 23:27:00,55.8,52.9,30.06,East,92,0.0,1.0,90,0.01,,---,0.12,VWS V14.01,2013-06-04 04:27:00,
2013-06-03 23:33:00,55.8,52.9,30.06,East,92,1.0,2.0,90,0.01,,---,0.12,VWS V14.01,2013-06-04 04:33:00,
2013-06-03 23:38:00,55.8,52.9,30.05,East,92,0.0,2.0,90,0.01,,---,0.12,VWS V14.01,2013-06-04 04:38:00,
2013-06-03 23:43:00,55.9,53.0,30.06,East,100,5.0,5.0,90,0.01,,---,0.12,VWS V14.01,2013-06-04 04:43:00,
2013-06-03 23:48:00,55.9,52.7,30.05,East,99,1.0,5.0,89,0.01,,---,0.12,VWS V14.01,2013-06-04 04:48:00,
2013-06-03 23:53:00,56.0,52.8,30.06,East,100,1.0,5.0,89,0.00,,---,0.12,VWS V14.01,2013-06-04 04:53:00,
2013-06-03 23:58:00,56.0,52.5,30.06,East,100,0.0,2.0,88,0.00,,---,0.12,VWS V14.01,2013-06-04 04:58:00,